sensor_id;sensor_type;location;lat;lon;timestamp;P1;durP1;ratioP1;P2;durP2;ratioP2
8088;SDS011;57635;49.194;12.104;2023-08-07T00:00:25;2.93;;;1.10;;
8088;SDS011;57635;49.194;12.104;2023-08-07T00:02:53;0.80;;;0.80;;
8088;SDS011;57635;49.194;12.104;2023-08-07T00:05:20;0.83;;;0.83;;
8088;SDS011;57635;49.194;12.104;2023-08-07T00:07:48;0.77;;;0.77;;
8088;SDS011;57635;49.194;12.104;2023-08-07T00:10:17;0.70;;;0.70;;
8088;SDS011;57635;49.194;12.104;2023-08-07T00:12:45;1.43;;;1.03;;
8088;SDS011;57635;49.194;12.104;2023-08-07T00:15:13;1.70;;;1.60;;
8088;SDS011;57635;49.194;12.104;2023-08-07T00:17:40;1.10;;;1.10;;
8088;SDS011;57635;49.194;12.104;2023-08-07T00:20:08;1.97;;;0.77;;
8088;SDS011;57635;49.194;12.104;2023-08-07T00:22:37;0.70;;;0.70;;
8088;SDS011;57635;49.194;12.104;2023-08-07T00:25:04;0.67;;;0.67;;
8088;SDS011;57635;49.194;12.104;2023-08-07T00:27:34;0.70;;;0.70;;
8088;SDS011;57635;49.194;12.104;2023-08-07T00:30:02;0.90;;;0.90;;
8088;SDS011;57635;49.194;12.104;2023-08-07T00:32:30;0.50;;;0.50;;
8088;SDS011;57635;49.194;12.104;2023-08-07T00:34:58;1.10;;;1.00;;
8088;SDS011;57635;49.194;12.104;2023-08-07T00:37:25;0.60;;;0.60;;
8088;SDS011;57635;49.194;12.104;2023-08-07T00:39:53;0.70;;;0.70;;
8088;SDS011;57635;49.194;12.104;2023-08-07T00:42:21;1.13;;;0.50;;
8088;SDS011;57635;49.194;12.104;2023-08-07T00:44:50;0.50;;;0.50;;
8088;SDS011;57635;49.194;12.104;2023-08-07T00:47:17;0.50;;;0.50;;
8088;SDS011;57635;49.194;12.104;2023-08-07T00:49:45;0.60;;;0.60;;
8088;SDS011;57635;49.194;12.104;2023-08-07T00:52:13;0.53;;;0.53;;
8088;SDS011;57635;49.194;12.104;2023-08-07T00:54:44;0.60;;;0.60;;
8088;SDS011;57635;49.194;12.104;2023-08-07T00:57:12;0.50;;;0.50;;
8088;SDS011;57635;49.194;12.104;2023-08-07T00:59:41;0.80;;;0.80;;
8088;SDS011;57635;49.194;12.104;2023-08-07T01:02:10;0.60;;;0.60;;
8088;SDS011;57635;49.194;12.104;2023-08-07T01:04:39;0.50;;;0.50;;
8088;SDS011;57635;49.194;12.104;2023-08-07T01:07:07;0.83;;;0.60;;
8088;SDS011;57635;49.194;12.104;2023-08-07T01:09:35;0.83;;;0.60;;
8088;SDS011;57635;49.194;12.104;2023-08-07T01:12:06;0.50;;;0.50;;
8088;SDS011;57635;49.194;12.104;2023-08-07T01:14:37;0.43;;;0.43;;
8088;SDS011;57635;49.194;12.104;2023-08-07T01:17:09;0.40;;;0.40;;
8088;SDS011;57635;49.194;12.104;2023-08-07T01:19:41;0.50;;;0.50;;
8088;SDS011;57635;49.194;12.104;2023-08-07T01:22:10;0.60;;;0.60;;
8088;SDS011;57635;49.194;12.104;2023-08-07T01:24:39;0.40;;;0.40;;
8088;SDS011;57635;49.194;12.104;2023-08-07T01:27:10;0.60;;;0.60;;
8088;SDS011;57635;49.194;12.104;2023-08-07T01:29:49;0.50;;;0.50;;
8088;SDS011;57635;49.194;12.104;2023-08-07T01:32:23;0.60;;;0.60;;
8088;SDS011;57635;49.194;12.104;2023-08-07T01:34:53;0.40;;;0.40;;
8088;SDS011;57635;49.194;12.104;2023-08-07T01:37:23;0.63;;;0.63;;
8088;SDS011;57635;49.194;12.104;2023-08-07T01:39:51;0.40;;;0.40;;
8088;SDS011;57635;49.194;12.104;2023-08-07T01:42:19;1.03;;;0.40;;
8088;SDS011;57635;49.194;12.104;2023-08-07T01:44:46;0.83;;;0.83;;
8088;SDS011;57635;49.194;12.104;2023-08-07T01:47:14;0.40;;;0.40;;
8088;SDS011;57635;49.194;12.104;2023-08-07T01:49:42;1.27;;;0.40;;
8088;SDS011;57635;49.194;12.104;2023-08-07T01:52:10;0.30;;;0.30;;
8088;SDS011;57635;49.194;12.104;2023-08-07T01:54:40;0.30;;;0.30;;
8088;SDS011;57635;49.194;12.104;2023-08-07T01:57:07;0.50;;;0.50;;
8088;SDS011;57635;49.194;12.104;2023-08-07T01:59:35;0.40;;;0.40;;
8088;SDS011;57635;49.194;12.104;2023-08-07T02:02:03;0.40;;;0.40;;
8088;SDS011;57635;49.194;12.104;2023-08-07T02:04:31;0.37;;;0.37;;
8088;SDS011;57635;49.194;12.104;2023-08-07T02:06:58;0.47;;;0.47;;
8088;SDS011;57635;49.194;12.104;2023-08-07T02:09:26;0.50;;;0.50;;
8088;SDS011;57635;49.194;12.104;2023-08-07T02:11:56;0.30;;;0.30;;
8088;SDS011;57635;49.194;12.104;2023-08-07T02:14:24;0.30;;;0.30;;
8088;SDS011;57635;49.194;12.104;2023-08-07T02:16:52;0.40;;;0.40;;
8088;SDS011;57635;49.194;12.104;2023-08-07T02:19:19;0.50;;;0.50;;
8088;SDS011;57635;49.194;12.104;2023-08-07T02:21:47;0.30;;;0.30;;
8088;SDS011;57635;49.194;12.104;2023-08-07T02:24:15;0.40;;;0.40;;
8088;SDS011;57635;49.194;12.104;2023-08-07T02:26:44;0.50;;;0.40;;
8088;SDS011;57635;49.194;12.104;2023-08-07T02:29:13;0.70;;;0.70;;
8088;SDS011;57635;49.194;12.104;2023-08-07T02:31:41;0.93;;;0.47;;
8088;SDS011;57635;49.194;12.104;2023-08-07T02:34:09;0.60;;;0.60;;
8088;SDS011;57635;49.194;12.104;2023-08-07T02:36:36;0.30;;;0.30;;
8088;SDS011;57635;49.194;12.104;2023-08-07T02:39:04;0.50;;;0.50;;
8088;SDS011;57635;49.194;12.104;2023-08-07T02:41:32;0.63;;;0.50;;
8088;SDS011;57635;49.194;12.104;2023-08-07T02:44:00;0.60;;;0.30;;
8088;SDS011;57635;49.194;12.104;2023-08-07T02:46:29;0.60;;;0.50;;
8088;SDS011;57635;49.194;12.104;2023-08-07T02:48:56;0.40;;;0.40;;
8088;SDS011;57635;49.194;12.104;2023-08-07T02:51:24;0.33;;;0.33;;
8088;SDS011;57635;49.194;12.104;2023-08-07T02:53:52;0.30;;;0.30;;
8088;SDS011;57635;49.194;12.104;2023-08-07T02:56:19;0.40;;;0.40;;
8088;SDS011;57635;49.194;12.104;2023-08-07T02:58:47;0.40;;;0.40;;
8088;SDS011;57635;49.194;12.104;2023-08-07T03:01:15;0.30;;;0.30;;
8088;SDS011;57635;49.194;12.104;2023-08-07T03:03:44;0.50;;;0.50;;
8088;SDS011;57635;49.194;12.104;2023-08-07T03:06:12;0.40;;;0.40;;
8088;SDS011;57635;49.194;12.104;2023-08-07T03:08:39;0.30;;;0.30;;
8088;SDS011;57635;49.194;12.104;2023-08-07T03:11:09;0.40;;;0.40;;
8088;SDS011;57635;49.194;12.104;2023-08-07T03:13:37;0.87;;;0.57;;
8088;SDS011;57635;49.194;12.104;2023-08-07T03:16:05;0.50;;;0.50;;
8088;SDS011;57635;49.194;12.104;2023-08-07T03:18:33;0.50;;;0.50;;
8088;SDS011;57635;49.194;12.104;2023-08-07T03:21:03;0.40;;;0.40;;
8088;SDS011;57635;49.194;12.104;2023-08-07T03:23:30;0.50;;;0.50;;
8088;SDS011;57635;49.194;12.104;2023-08-07T03:26:01;0.50;;;0.50;;
8088;SDS011;57635;49.194;12.104;2023-08-07T03:28:43;0.50;;;0.50;;
8088;SDS011;57635;49.194;12.104;2023-08-07T03:31:12;0.40;;;0.40;;
8088;SDS011;57635;49.194;12.104;2023-08-07T03:33:40;0.70;;;0.70;;
8088;SDS011;57635;49.194;12.104;2023-08-07T03:36:09;0.70;;;0.70;;
8088;SDS011;57635;49.194;12.104;2023-08-07T03:38:36;0.50;;;0.50;;
8088;SDS011;57635;49.194;12.104;2023-08-07T03:41:04;0.63;;;0.63;;
8088;SDS011;57635;49.194;12.104;2023-08-07T03:43:32;0.60;;;0.60;;
8088;SDS011;57635;49.194;12.104;2023-08-07T03:46:00;0.60;;;0.50;;
8088;SDS011;57635;49.194;12.104;2023-08-07T03:48:29;0.50;;;0.50;;
8088;SDS011;57635;49.194;12.104;2023-08-07T03:51:01;0.60;;;0.60;;
8088;SDS011;57635;49.194;12.104;2023-08-07T03:53:31;0.50;;;0.50;;
8088;SDS011;57635;49.194;12.104;2023-08-07T03:55:58;0.83;;;0.83;;
8088;SDS011;57635;49.194;12.104;2023-08-07T03:58:26;0.83;;;0.70;;
8088;SDS011;57635;49.194;12.104;2023-08-07T04:00:54;0.50;;;0.50;;
8088;SDS011;57635;49.194;12.104;2023-08-07T04:03:22;1.10;;;0.60;;
8088;SDS011;57635;49.194;12.104;2023-08-07T04:05:51;0.90;;;0.90;;
8088;SDS011;57635;49.194;12.104;2023-08-07T04:08:19;0.53;;;0.53;;
8088;SDS011;57635;49.194;12.104;2023-08-07T04:10:58;1.23;;;1.13;;
8088;SDS011;57635;49.194;12.104;2023-08-07T04:13:27;0.80;;;0.80;;
8088;SDS011;57635;49.194;12.104;2023-08-07T04:15:55;0.90;;;0.90;;
8088;SDS011;57635;49.194;12.104;2023-08-07T04:18:23;0.70;;;0.70;;
8088;SDS011;57635;49.194;12.104;2023-08-07T04:23:19;0.90;;;0.90;;
8088;SDS011;57635;49.194;12.104;2023-08-07T04:25:48;0.90;;;0.90;;
8088;SDS011;57635;49.194;12.104;2023-08-07T04:28:17;0.93;;;0.93;;
8088;SDS011;57635;49.194;12.104;2023-08-07T04:30:48;1.13;;;1.03;;
8088;SDS011;57635;49.194;12.104;2023-08-07T04:33:17;0.53;;;0.53;;
8088;SDS011;57635;49.194;12.104;2023-08-07T04:35:45;1.17;;;0.90;;
8088;SDS011;57635;49.194;12.104;2023-08-07T04:38:13;0.87;;;0.87;;
8088;SDS011;57635;49.194;12.104;2023-08-07T04:40:44;1.37;;;0.80;;
8088;SDS011;57635;49.194;12.104;2023-08-07T04:43:13;0.80;;;0.80;;
8088;SDS011;57635;49.194;12.104;2023-08-07T04:45:42;0.60;;;0.60;;
8088;SDS011;57635;49.194;12.104;2023-08-07T04:48:11;0.73;;;0.73;;
8088;SDS011;57635;49.194;12.104;2023-08-07T04:50:39;0.97;;;0.97;;
8088;SDS011;57635;49.194;12.104;2023-08-07T04:53:07;0.80;;;0.80;;
8088;SDS011;57635;49.194;12.104;2023-08-07T04:55:35;0.70;;;0.70;;
8088;SDS011;57635;49.194;12.104;2023-08-07T04:58:04;0.90;;;0.90;;
8088;SDS011;57635;49.194;12.104;2023-08-07T05:00:32;0.77;;;0.77;;
8088;SDS011;57635;49.194;12.104;2023-08-07T05:03:01;1.03;;;0.80;;
8088;SDS011;57635;49.194;12.104;2023-08-07T05:05:29;1.30;;;1.20;;
8088;SDS011;57635;49.194;12.104;2023-08-07T05:07:57;2.10;;;1.20;;
8088;SDS011;57635;49.194;12.104;2023-08-07T05:10:25;0.87;;;0.87;;
8088;SDS011;57635;49.194;12.104;2023-08-07T05:12:53;1.20;;;0.93;;
8088;SDS011;57635;49.194;12.104;2023-08-07T05:15:22;0.70;;;0.70;;
8088;SDS011;57635;49.194;12.104;2023-08-07T05:17:50;1.10;;;1.00;;
8088;SDS011;57635;49.194;12.104;2023-08-07T05:20:19;0.90;;;0.90;;
8088;SDS011;57635;49.194;12.104;2023-08-07T05:22:47;0.90;;;0.90;;
8088;SDS011;57635;49.194;12.104;2023-08-07T05:25:15;0.97;;;0.97;;
8088;SDS011;57635;49.194;12.104;2023-08-07T05:27:43;1.20;;;1.20;;
8088;SDS011;57635;49.194;12.104;2023-08-07T05:30:11;1.00;;;0.90;;
8088;SDS011;57635;49.194;12.104;2023-08-07T05:32:40;0.80;;;0.80;;
8088;SDS011;57635;49.194;12.104;2023-08-07T05:35:08;0.90;;;0.90;;
8088;SDS011;57635;49.194;12.104;2023-08-07T05:37:37;1.63;;;0.90;;
8088;SDS011;57635;49.194;12.104;2023-08-07T05:40:05;1.00;;;1.00;;
8088;SDS011;57635;49.194;12.104;2023-08-07T05:42:33;1.10;;;1.10;;
8088;SDS011;57635;49.194;12.104;2023-08-07T05:45:01;1.07;;;1.07;;
8088;SDS011;57635;49.194;12.104;2023-08-07T05:47:30;1.77;;;1.40;;
8088;SDS011;57635;49.194;12.104;2023-08-07T05:49:57;1.80;;;1.00;;
8088;SDS011;57635;49.194;12.104;2023-08-07T05:52:25;1.00;;;1.00;;
8088;SDS011;57635;49.194;12.104;2023-08-07T05:54:54;1.13;;;1.13;;
8088;SDS011;57635;49.194;12.104;2023-08-07T05:57:22;0.90;;;0.90;;
8088;SDS011;57635;49.194;12.104;2023-08-07T05:59:50;1.90;;;1.80;;
8088;SDS011;57635;49.194;12.104;2023-08-07T06:02:18;1.10;;;1.10;;
8088;SDS011;57635;49.194;12.104;2023-08-07T06:04:45;1.00;;;1.00;;
8088;SDS011;57635;49.194;12.104;2023-08-07T06:07:14;1.60;;;1.50;;
8088;SDS011;57635;49.194;12.104;2023-08-07T06:09:42;1.03;;;1.03;;
8088;SDS011;57635;49.194;12.104;2023-08-07T06:12:11;1.10;;;1.10;;
8088;SDS011;57635;49.194;12.104;2023-08-07T06:14:39;0.73;;;0.73;;
8088;SDS011;57635;49.194;12.104;2023-08-07T06:17:06;0.80;;;0.80;;
8088;SDS011;57635;49.194;12.104;2023-08-07T06:19:34;0.80;;;0.80;;
8088;SDS011;57635;49.194;12.104;2023-08-07T06:22:02;1.27;;;1.17;;
8088;SDS011;57635;49.194;12.104;2023-08-07T06:24:29;1.30;;;1.20;;
8088;SDS011;57635;49.194;12.104;2023-08-07T06:26:57;0.87;;;0.83;;
8088;SDS011;57635;49.194;12.104;2023-08-07T06:29:26;1.57;;;1.07;;
8088;SDS011;57635;49.194;12.104;2023-08-07T06:31:54;1.03;;;1.03;;
8088;SDS011;57635;49.194;12.104;2023-08-07T06:34:22;0.80;;;0.80;;
8088;SDS011;57635;49.194;12.104;2023-08-07T06:36:51;0.83;;;0.83;;
8088;SDS011;57635;49.194;12.104;2023-08-07T06:39:18;1.00;;;1.00;;
8088;SDS011;57635;49.194;12.104;2023-08-07T06:41:46;1.63;;;1.00;;
8088;SDS011;57635;49.194;12.104;2023-08-07T06:44:14;1.67;;;1.07;;
8088;SDS011;57635;49.194;12.104;2023-08-07T06:46:43;1.17;;;1.07;;
8088;SDS011;57635;49.194;12.104;2023-08-07T06:49:11;1.30;;;1.20;;
8088;SDS011;57635;49.194;12.104;2023-08-07T06:51:38;3.03;;;1.13;;
8088;SDS011;57635;49.194;12.104;2023-08-07T06:54:06;1.50;;;1.40;;
8088;SDS011;57635;49.194;12.104;2023-08-07T06:56:34;1.17;;;1.17;;
8088;SDS011;57635;49.194;12.104;2023-08-07T06:59:03;1.30;;;1.20;;
8088;SDS011;57635;49.194;12.104;2023-08-07T07:01:31;1.23;;;1.13;;
8088;SDS011;57635;49.194;12.104;2023-08-07T07:04:00;1.10;;;1.10;;
8088;SDS011;57635;49.194;12.104;2023-08-07T07:06:28;1.60;;;1.40;;
8088;SDS011;57635;49.194;12.104;2023-08-07T07:08:56;1.13;;;1.10;;
8088;SDS011;57635;49.194;12.104;2023-08-07T07:11:24;1.10;;;1.10;;
8088;SDS011;57635;49.194;12.104;2023-08-07T07:13:52;1.73;;;1.13;;
8088;SDS011;57635;49.194;12.104;2023-08-07T07:16:20;1.33;;;1.07;;
8088;SDS011;57635;49.194;12.104;2023-08-07T07:18:49;1.73;;;1.67;;
8088;SDS011;57635;49.194;12.104;2023-08-07T07:21:18;1.70;;;1.60;;
8088;SDS011;57635;49.194;12.104;2023-08-07T07:23:46;1.40;;;1.40;;
8088;SDS011;57635;49.194;12.104;2023-08-07T07:26:14;1.73;;;1.43;;
8088;SDS011;57635;49.194;12.104;2023-08-07T07:28:41;1.20;;;1.20;;
8088;SDS011;57635;49.194;12.104;2023-08-07T07:31:09;1.40;;;1.30;;
8088;SDS011;57635;49.194;12.104;2023-08-07T07:33:38;1.40;;;1.40;;
8088;SDS011;57635;49.194;12.104;2023-08-07T07:36:12;1.50;;;1.40;;
8088;SDS011;57635;49.194;12.104;2023-08-07T07:38:44;1.50;;;1.40;;
8088;SDS011;57635;49.194;12.104;2023-08-07T07:41:12;1.57;;;1.47;;
8088;SDS011;57635;49.194;12.104;2023-08-07T07:43:40;1.90;;;1.33;;
8088;SDS011;57635;49.194;12.104;2023-08-07T07:46:09;1.20;;;1.20;;
8088;SDS011;57635;49.194;12.104;2023-08-07T07:48:37;1.00;;;1.00;;
8088;SDS011;57635;49.194;12.104;2023-08-07T07:51:05;1.40;;;1.40;;
8088;SDS011;57635;49.194;12.104;2023-08-07T07:53:32;1.80;;;1.70;;
8088;SDS011;57635;49.194;12.104;2023-08-07T07:56:01;8.37;;;7.00;;
8088;SDS011;57635;49.194;12.104;2023-08-07T07:58:29;1.90;;;1.80;;
8088;SDS011;57635;49.194;12.104;2023-08-07T08:00:57;2.37;;;1.30;;
8088;SDS011;57635;49.194;12.104;2023-08-07T08:03:25;1.10;;;1.10;;
8088;SDS011;57635;49.194;12.104;2023-08-07T08:05:53;1.67;;;1.57;;
8088;SDS011;57635;49.194;12.104;2023-08-07T08:08:21;3.27;;;1.67;;
8088;SDS011;57635;49.194;12.104;2023-08-07T08:10:49;1.00;;;1.00;;
8088;SDS011;57635;49.194;12.104;2023-08-07T08:13:18;0.90;;;0.90;;
8088;SDS011;57635;49.194;12.104;2023-08-07T08:15:46;1.23;;;1.03;;
8088;SDS011;57635;49.194;12.104;2023-08-07T08:18:14;1.10;;;1.10;;
8088;SDS011;57635;49.194;12.104;2023-08-07T08:20:42;1.23;;;1.13;;
8088;SDS011;57635;49.194;12.104;2023-08-07T08:23:09;0.87;;;0.87;;
8088;SDS011;57635;49.194;12.104;2023-08-07T08:25:37;1.10;;;1.10;;
8088;SDS011;57635;49.194;12.104;2023-08-07T08:28:05;1.00;;;0.90;;
8088;SDS011;57635;49.194;12.104;2023-08-07T08:30:34;1.17;;;1.13;;
8088;SDS011;57635;49.194;12.104;2023-08-07T08:33:02;0.93;;;0.93;;
8088;SDS011;57635;49.194;12.104;2023-08-07T08:35:31;3.70;;;3.30;;
8088;SDS011;57635;49.194;12.104;2023-08-07T08:37:59;1.27;;;1.27;;
8088;SDS011;57635;49.194;12.104;2023-08-07T08:40:27;0.87;;;0.87;;
8088;SDS011;57635;49.194;12.104;2023-08-07T08:42:55;2.43;;;1.07;;
8088;SDS011;57635;49.194;12.104;2023-08-07T08:45:24;0.80;;;0.80;;
8088;SDS011;57635;49.194;12.104;2023-08-07T08:47:55;0.90;;;0.90;;
8088;SDS011;57635;49.194;12.104;2023-08-07T08:50:26;0.87;;;0.87;;
8088;SDS011;57635;49.194;12.104;2023-08-07T08:52:55;1.27;;;1.07;;
8088;SDS011;57635;49.194;12.104;2023-08-07T08:55:24;0.90;;;0.90;;
8088;SDS011;57635;49.194;12.104;2023-08-07T08:57:52;1.10;;;1.10;;
8088;SDS011;57635;49.194;12.104;2023-08-07T09:00:20;0.90;;;0.90;;
8088;SDS011;57635;49.194;12.104;2023-08-07T09:02:49;1.43;;;1.33;;
8088;SDS011;57635;49.194;12.104;2023-08-07T09:05:19;1.00;;;1.00;;
8088;SDS011;57635;49.194;12.104;2023-08-07T09:07:48;1.10;;;1.10;;
8088;SDS011;57635;49.194;12.104;2023-08-07T09:10:16;1.53;;;1.50;;
8088;SDS011;57635;49.194;12.104;2023-08-07T09:12:45;1.37;;;1.30;;
8088;SDS011;57635;49.194;12.104;2023-08-07T09:15:16;1.33;;;1.30;;
8088;SDS011;57635;49.194;12.104;2023-08-07T09:17:46;1.50;;;1.40;;
8088;SDS011;57635;49.194;12.104;2023-08-07T09:20:14;1.97;;;1.63;;
8088;SDS011;57635;49.194;12.104;2023-08-07T09:22:43;1.20;;;1.20;;
8088;SDS011;57635;49.194;12.104;2023-08-07T09:25:11;1.50;;;1.50;;
8088;SDS011;57635;49.194;12.104;2023-08-07T09:27:39;1.90;;;1.30;;
8088;SDS011;57635;49.194;12.104;2023-08-07T09:30:07;1.80;;;1.70;;
8088;SDS011;57635;49.194;12.104;2023-08-07T09:32:36;2.07;;;1.83;;
8088;SDS011;57635;49.194;12.104;2023-08-07T09:35:05;1.63;;;1.60;;
8088;SDS011;57635;49.194;12.104;2023-08-07T09:37:35;2.63;;;1.70;;
8088;SDS011;57635;49.194;12.104;2023-08-07T09:40:07;1.80;;;1.70;;
8088;SDS011;57635;49.194;12.104;2023-08-07T09:42:38;2.10;;;2.00;;
8088;SDS011;57635;49.194;12.104;2023-08-07T09:45:18;2.60;;;2.40;;
8088;SDS011;57635;49.194;12.104;2023-08-07T09:47:47;3.17;;;2.43;;
8088;SDS011;57635;49.194;12.104;2023-08-07T09:50:23;3.13;;;2.50;;
8088;SDS011;57635;49.194;12.104;2023-08-07T09:52:53;2.10;;;2.00;;
8088;SDS011;57635;49.194;12.104;2023-08-07T09:55:23;2.57;;;2.47;;
8088;SDS011;57635;49.194;12.104;2023-08-07T09:57:51;1.73;;;1.73;;
8088;SDS011;57635;49.194;12.104;2023-08-07T10:00:19;2.60;;;2.40;;
8088;SDS011;57635;49.194;12.104;2023-08-07T10:02:47;1.90;;;1.80;;
8088;SDS011;57635;49.194;12.104;2023-08-07T10:05:16;2.60;;;2.07;;
8088;SDS011;57635;49.194;12.104;2023-08-07T10:07:44;2.03;;;1.93;;
8088;SDS011;57635;49.194;12.104;2023-08-07T10:10:13;2.00;;;1.90;;
8088;SDS011;57635;49.194;12.104;2023-08-07T10:12:43;2.10;;;2.00;;
8088;SDS011;57635;49.194;12.104;2023-08-07T10:15:14;4.50;;;1.70;;
8088;SDS011;57635;49.194;12.104;2023-08-07T10:17:42;2.20;;;2.10;;
8088;SDS011;57635;49.194;12.104;2023-08-07T10:20:11;2.53;;;1.87;;
8088;SDS011;57635;49.194;12.104;2023-08-07T10:22:39;2.20;;;2.10;;
8088;SDS011;57635;49.194;12.104;2023-08-07T10:25:08;2.10;;;2.00;;
8088;SDS011;57635;49.194;12.104;2023-08-07T10:27:37;2.00;;;1.90;;
8088;SDS011;57635;49.194;12.104;2023-08-07T10:30:09;2.50;;;2.30;;
8088;SDS011;57635;49.194;12.104;2023-08-07T10:32:39;2.03;;;1.83;;
8088;SDS011;57635;49.194;12.104;2023-08-07T10:35:08;1.87;;;1.77;;
8088;SDS011;57635;49.194;12.104;2023-08-07T10:37:39;2.17;;;1.97;;
8088;SDS011;57635;49.194;12.104;2023-08-07T10:40:08;1.77;;;1.60;;
8088;SDS011;57635;49.194;12.104;2023-08-07T10:42:54;1.60;;;1.50;;
8088;SDS011;57635;49.194;12.104;2023-08-07T10:45:25;2.23;;;2.13;;
8088;SDS011;57635;49.194;12.104;2023-08-07T10:47:57;1.77;;;1.40;;
8088;SDS011;57635;49.194;12.104;2023-08-07T10:50:29;2.17;;;1.90;;
8088;SDS011;57635;49.194;12.104;2023-08-07T10:52:59;3.67;;;1.77;;
8088;SDS011;57635;49.194;12.104;2023-08-07T10:55:30;2.40;;;1.20;;
8088;SDS011;57635;49.194;12.104;2023-08-07T10:57:59;2.07;;;1.40;;
8088;SDS011;57635;49.194;12.104;2023-08-07T11:00:28;1.20;;;1.20;;
8088;SDS011;57635;49.194;12.104;2023-08-07T11:02:57;1.60;;;1.50;;
8088;SDS011;57635;49.194;12.104;2023-08-07T11:05:25;1.40;;;1.40;;
8088;SDS011;57635;49.194;12.104;2023-08-07T11:07:53;1.57;;;1.20;;
8088;SDS011;57635;49.194;12.104;2023-08-07T11:10:21;1.83;;;1.07;;
8088;SDS011;57635;49.194;12.104;2023-08-07T11:12:48;1.03;;;1.03;;
8088;SDS011;57635;49.194;12.104;2023-08-07T11:15:16;1.33;;;1.30;;
8088;SDS011;57635;49.194;12.104;2023-08-07T11:17:45;1.30;;;1.17;;
8088;SDS011;57635;49.194;12.104;2023-08-07T11:20:14;1.50;;;1.40;;
8088;SDS011;57635;49.194;12.104;2023-08-07T11:22:42;1.30;;;1.20;;
8088;SDS011;57635;49.194;12.104;2023-08-07T11:25:10;1.70;;;1.50;;
8088;SDS011;57635;49.194;12.104;2023-08-07T11:27:39;1.47;;;1.33;;
8088;SDS011;57635;49.194;12.104;2023-08-07T11:30:10;1.03;;;1.03;;
8088;SDS011;57635;49.194;12.104;2023-08-07T11:32:39;1.13;;;1.13;;
8088;SDS011;57635;49.194;12.104;2023-08-07T11:35:08;3.03;;;1.17;;
8088;SDS011;57635;49.194;12.104;2023-08-07T11:37:36;1.00;;;1.00;;
8088;SDS011;57635;49.194;12.104;2023-08-07T11:40:13;1.20;;;1.10;;
8088;SDS011;57635;49.194;12.104;2023-08-07T11:42:41;1.30;;;1.03;;
8088;SDS011;57635;49.194;12.104;2023-08-07T11:45:09;1.60;;;0.90;;
8088;SDS011;57635;49.194;12.104;2023-08-07T11:47:37;0.90;;;0.90;;
8088;SDS011;57635;49.194;12.104;2023-08-07T11:50:09;1.40;;;1.40;;
8088;SDS011;57635;49.194;12.104;2023-08-07T11:52:37;1.60;;;1.50;;
8088;SDS011;57635;49.194;12.104;2023-08-07T11:55:06;4.10;;;1.67;;
8088;SDS011;57635;49.194;12.104;2023-08-07T11:57:37;2.23;;;2.10;;
8088;SDS011;57635;49.194;12.104;2023-08-07T12:00:06;1.40;;;1.30;;
8088;SDS011;57635;49.194;12.104;2023-08-07T12:02:41;1.63;;;1.50;;
8088;SDS011;57635;49.194;12.104;2023-08-07T12:05:12;2.00;;;1.90;;
8088;SDS011;57635;49.194;12.104;2023-08-07T12:07:40;4.20;;;2.13;;
8088;SDS011;57635;49.194;12.104;2023-08-07T12:10:08;2.30;;;2.17;;
8088;SDS011;57635;49.194;12.104;2023-08-07T12:12:37;2.20;;;2.10;;
8088;SDS011;57635;49.194;12.104;2023-08-07T12:15:06;2.23;;;2.13;;
8088;SDS011;57635;49.194;12.104;2023-08-07T12:17:35;2.03;;;1.93;;
8088;SDS011;57635;49.194;12.104;2023-08-07T12:20:04;2.30;;;2.20;;
8088;SDS011;57635;49.194;12.104;2023-08-07T12:22:37;2.20;;;2.10;;
8088;SDS011;57635;49.194;12.104;2023-08-07T12:25:05;1.80;;;1.70;;
8088;SDS011;57635;49.194;12.104;2023-08-07T12:27:34;2.70;;;2.50;;
8088;SDS011;57635;49.194;12.104;2023-08-07T12:30:01;2.00;;;1.80;;
8088;SDS011;57635;49.194;12.104;2023-08-07T12:32:29;3.03;;;2.83;;
8088;SDS011;57635;49.194;12.104;2023-08-07T12:34:57;2.17;;;2.03;;
8088;SDS011;57635;49.194;12.104;2023-08-07T12:37:27;2.57;;;2.10;;
8088;SDS011;57635;49.194;12.104;2023-08-07T12:39:56;2.37;;;1.83;;
8088;SDS011;57635;49.194;12.104;2023-08-07T12:42:44;2.20;;;2.10;;
8088;SDS011;57635;49.194;12.104;2023-08-07T12:45:12;2.40;;;2.20;;
8088;SDS011;57635;49.194;12.104;2023-08-07T12:47:41;2.07;;;1.97;;
8088;SDS011;57635;49.194;12.104;2023-08-07T12:50:09;3.53;;;2.37;;
8088;SDS011;57635;49.194;12.104;2023-08-07T12:52:37;2.83;;;1.70;;
8088;SDS011;57635;49.194;12.104;2023-08-07T12:55:06;2.10;;;1.90;;
8088;SDS011;57635;49.194;12.104;2023-08-07T12:57:36;1.93;;;1.83;;
8088;SDS011;57635;49.194;12.104;2023-08-07T13:00:04;1.70;;;1.63;;
8088;SDS011;57635;49.194;12.104;2023-08-07T13:02:34;3.60;;;2.23;;
8088;SDS011;57635;49.194;12.104;2023-08-07T13:05:01;2.40;;;2.23;;
8088;SDS011;57635;49.194;12.104;2023-08-07T13:07:29;1.83;;;1.77;;
8088;SDS011;57635;49.194;12.104;2023-08-07T13:09:57;2.87;;;2.37;;
8088;SDS011;57635;49.194;12.104;2023-08-07T13:12:26;2.20;;;2.00;;
8088;SDS011;57635;49.194;12.104;2023-08-07T13:14:54;2.63;;;2.43;;
8088;SDS011;57635;49.194;12.104;2023-08-07T13:17:21;3.00;;;2.80;;
8088;SDS011;57635;49.194;12.104;2023-08-07T13:19:49;2.03;;;1.93;;
8088;SDS011;57635;49.194;12.104;2023-08-07T13:22:17;2.33;;;2.13;;
8088;SDS011;57635;49.194;12.104;2023-08-07T13:24:45;2.07;;;1.70;;
8088;SDS011;57635;49.194;12.104;2023-08-07T13:27:12;2.67;;;1.90;;
8088;SDS011;57635;49.194;12.104;2023-08-07T13:29:42;1.43;;;1.33;;
8088;SDS011;57635;49.194;12.104;2023-08-07T13:32:09;2.43;;;2.33;;
8088;SDS011;57635;49.194;12.104;2023-08-07T13:34:37;1.50;;;1.40;;
8088;SDS011;57635;49.194;12.104;2023-08-07T13:37:05;1.60;;;1.60;;
8088;SDS011;57635;49.194;12.104;2023-08-07T13:39:33;1.60;;;1.50;;
8088;SDS011;57635;49.194;12.104;2023-08-07T13:42:01;1.80;;;1.70;;
8088;SDS011;57635;49.194;12.104;2023-08-07T13:44:28;1.47;;;1.37;;
8088;SDS011;57635;49.194;12.104;2023-08-07T13:46:57;1.47;;;1.47;;
8088;SDS011;57635;49.194;12.104;2023-08-07T13:49:25;1.97;;;1.67;;
8088;SDS011;57635;49.194;12.104;2023-08-07T13:51:53;1.60;;;1.40;;
8088;SDS011;57635;49.194;12.104;2023-08-07T13:54:21;1.53;;;1.43;;
8088;SDS011;57635;49.194;12.104;2023-08-07T13:56:49;3.17;;;1.67;;
8088;SDS011;57635;49.194;12.104;2023-08-07T13:59:16;1.40;;;1.30;;
8088;SDS011;57635;49.194;12.104;2023-08-07T14:01:45;1.23;;;1.23;;
8088;SDS011;57635;49.194;12.104;2023-08-07T14:04:14;1.63;;;1.50;;
8088;SDS011;57635;49.194;12.104;2023-08-07T14:06:42;1.90;;;1.80;;
8088;SDS011;57635;49.194;12.104;2023-08-07T14:09:10;1.83;;;1.73;;
8088;SDS011;57635;49.194;12.104;2023-08-07T14:11:40;1.50;;;1.40;;
8088;SDS011;57635;49.194;12.104;2023-08-07T14:14:07;2.50;;;1.77;;
8088;SDS011;57635;49.194;12.104;2023-08-07T14:16:35;1.73;;;1.60;;
8088;SDS011;57635;49.194;12.104;2023-08-07T14:19:05;1.30;;;1.20;;
8088;SDS011;57635;49.194;12.104;2023-08-07T14:21:34;1.27;;;1.17;;
8088;SDS011;57635;49.194;12.104;2023-08-07T14:24:02;1.30;;;1.30;;
8088;SDS011;57635;49.194;12.104;2023-08-07T14:26:30;1.73;;;1.63;;
8088;SDS011;57635;49.194;12.104;2023-08-07T14:28:58;1.50;;;1.50;;
8088;SDS011;57635;49.194;12.104;2023-08-07T14:31:27;1.63;;;1.53;;
8088;SDS011;57635;49.194;12.104;2023-08-07T14:33:54;1.40;;;1.40;;
8088;SDS011;57635;49.194;12.104;2023-08-07T14:36:22;1.43;;;1.27;;
8088;SDS011;57635;49.194;12.104;2023-08-07T14:38:51;2.40;;;1.17;;
8088;SDS011;57635;49.194;12.104;2023-08-07T14:41:19;2.20;;;1.23;;
8088;SDS011;57635;49.194;12.104;2023-08-07T14:43:47;1.33;;;1.33;;
8088;SDS011;57635;49.194;12.104;2023-08-07T14:46:16;1.23;;;1.17;;
8088;SDS011;57635;49.194;12.104;2023-08-07T14:48:44;2.23;;;1.10;;
8088;SDS011;57635;49.194;12.104;2023-08-07T14:51:13;1.40;;;1.40;;
8088;SDS011;57635;49.194;12.104;2023-08-07T14:53:40;0.87;;;0.87;;
8088;SDS011;57635;49.194;12.104;2023-08-07T14:56:09;0.80;;;0.80;;
8088;SDS011;57635;49.194;12.104;2023-08-07T14:58:37;1.10;;;1.10;;